Time;durP1;ratioP1;P1;durP2;ratioP2;P2;SDS_P1;SDS_P2;PMS_P1;PMS_P2;Temp;Humidity;BMP_temperature;BMP_pressure;BME280_temperature;BME280_humidity;BME280_pressure;Samples;Min_cycle;Max_cycle;Signal;HPM_P1;HPM_P2
2022/08/06 00:01:54;;;;;;;3.33;2.87;;;;;;;16.34;64.08;101891.88;4983489;28;20378;-69
2022/08/06 00:04:19;;;;;;;4.50;3.00;;;;;;;16.17;64.00;101890.06;4982315;28;20472;-68
2022/08/06 00:06:45;;;;;;;4.27;3.10;;;;;;;16.66;62.91;101893.78;4982743;28;20271;-69
2022/08/06 00:09:11;;;;;;;3.20;2.90;;;;;;;16.74;63.19;101892.03;4982959;28;20434;-68
2022/08/06 00:11:37;;;;;;;5.00;3.17;;;;;;;16.08;63.67;101900.53;4982565;28;20513;-68
2022/08/06 00:14:03;;;;;;;8.80;3.60;;;;;;;16.55;63.69;101898.09;4982768;28;20455;-68
2022/08/06 00:16:28;;;;;;;3.17;2.87;;;;;;;16.61;63.70;101895.50;4983205;28;20449;-68
2022/08/06 00:18:54;;;;;;;4.47;3.27;;;;;;;16.66;63.76;101902.53;4982827;28;20221;-67
2022/08/06 00:21:19;;;;;;;4.73;3.43;;;;;;;16.45;64.73;101906.00;4982504;28;20172;-67
2022/08/06 00:23:45;;;;;;;3.57;3.13;;;;;;;16.40;65.78;101907.72;4983236;28;20251;-68
2022/08/06 00:26:10;;;;;;;6.30;3.70;;;;;;;16.45;65.57;101913.88;4981435;28;20342;-70
2022/08/06 00:28:35;;;;;;;6.43;3.40;;;;;;;16.34;66.32;101923.47;4982081;28;20211;-68
2022/08/06 00:31:03;;;;;;;6.83;3.63;;;;;;;16.06;66.81;101918.09;4981630;28;20238;-69
2022/08/06 00:33:28;;;;;;;4.70;4.03;;;;;;;16.04;67.61;101925.06;4982330;28;20176;-71
2022/08/06 00:35:53;;;;;;;6.17;3.80;;;;;;;16.23;67.35;101927.81;4982767;28;20474;-71
2022/08/06 00:38:19;;;;;;;3.80;3.50;;;;;;;16.15;67.38;101931.25;4982324;28;20184;-72
2022/08/06 00:40:44;;;;;;;3.50;3.20;;;;;;;16.43;66.64;101933.19;4981737;28;20198;-71
2022/08/06 00:43:10;;;;;;;5.03;3.40;;;;;;;16.10;67.54;101930.38;4982145;28;20578;-76
2022/08/06 00:45:36;;;;;;;3.90;3.30;;;;;;;16.13;66.84;101934.78;4982288;28;20185;-74
2022/08/06 00:48:01;;;;;;;5.03;3.47;;;;;;;16.02;67.46;101933.81;4982319;28;20219;-76
2022/08/06 00:50:27;;;;;;;3.67;3.37;;;;;;;16.22;66.90;101937.44;4982203;28;20556;-75
2022/08/06 00:52:52;;;;;;;4.73;3.63;;;;;;;16.23;66.99;101944.47;4984812;28;20184;-75
2022/08/06 00:55:19;;;;;;;4.60;3.20;;;;;;;16.07;67.68;101946.13;4987141;28;20486;-71
2022/08/06 00:57:45;;;;;;;3.90;3.13;;;;;;;16.00;67.93;101946.97;4985230;28;20171;-72
2022/08/06 01:00:10;;;;;;;7.87;3.37;;;;;;;16.12;67.82;101954.06;4986573;28;20435;-76
2022/08/06 01:02:36;;;;;;;6.27;3.37;;;;;;;16.13;67.94;101955.84;4986679;28;20165;-73
2022/08/06 01:05:01;;;;;;;6.33;3.20;;;;;;;16.10;68.25;101961.94;4982614;28;20168;-74
2022/08/06 01:07:27;;;;;;;3.93;3.40;;;;;;;16.16;67.93;101961.09;4982383;28;20292;-75
2022/08/06 01:09:53;;;;;;;3.80;3.10;;;;;;;16.10;67.70;101964.59;4981933;28;20200;-74
2022/08/06 01:12:18;;;;;;;4.07;3.17;;;;;;;15.85;67.88;101967.91;4982652;28;20503;-73
2022/08/06 01:14:44;;;;;;;5.50;3.80;;;;;;;16.10;67.99;101967.22;4981969;28;20199;-73
2022/08/06 01:17:21;;;;;;;6.20;3.40;;;;;;;16.06;67.50;101962.81;4981728;28;20180;-74
2022/08/06 01:20:12;;;;;;;4.10;3.23;;;;;;;16.30;67.37;101969.97;4981435;28;20543;-75
2022/08/06 01:22:44;;;;;;;4.63;3.70;;;;;;;16.17;66.70;101976.88;4954079;28;20478;-73
2022/08/06 01:25:45;;;;;;;6.60;3.50;;;;;;;16.04;67.24;101982.06;4981361;28;20408;-74
2022/08/06 01:28:14;;;;;;;4.27;3.40;;;;;;;16.11;67.15;101975.97;4961182;28;20701;-73
2022/08/06 01:30:49;;;;;;;3.70;3.40;;;;;;;15.96;68.77;101979.38;4980964;28;20463;-74
2022/08/06 01:33:27;;;;;;;6.27;3.43;;;;;;;16.04;68.26;101976.81;4981481;28;20485;-72
2022/08/06 01:35:55;;;;;;;5.53;5.00;;;;;;;15.86;68.63;101990.69;4980860;28;20415;-75
2022/08/06 01:38:25;;;;;;;3.53;3.23;;;;;;;15.95;69.16;101988.13;4981428;28;20429;-73
2022/08/06 01:40:52;;;;;;;3.37;3.10;;;;;;;15.86;69.43;101995.94;4964077;28;20439;-74
2022/08/06 01:43:19;;;;;;;4.23;3.50;;;;;;;15.81;69.59;101988.91;4980290;28;20457;-72
2022/08/06 01:45:46;;;;;;;4.07;3.37;;;;;;;15.88;68.92;101983.72;4980527;28;20418;-74
2022/08/06 01:48:18;;;;;;;4.87;3.40;;;;;;;15.68;69.61;101989.63;4979997;28;20925;-71
2022/08/06 01:50:48;;;;;;;4.50;3.50;;;;;;;15.93;69.27;101990.75;4979959;28;20420;-70
2022/08/06 01:53:17;;;;;;;3.73;3.30;;;;;;;15.59;69.54;101979.06;4978816;28;20500;-70
2022/08/06 01:55:45;;;;;;;5.10;3.37;;;;;;;15.83;69.18;101983.69;4980402;28;20841;-68
2022/08/06 01:58:12;;;;;;;3.50;3.20;;;;;;;15.64;69.60;101993.09;4980356;28;20451;-67
2022/08/06 02:00:40;;;;;;;3.57;3.27;;;;;;;15.57;69.65;101992.16;4980352;28;20437;-67
2022/08/06 02:03:10;;;;;;;4.23;3.30;;;;;;;15.92;68.84;101990.75;4979928;28;20419;-68
2022/08/06 02:05:36;;;;;;;6.30;3.90;;;;;;;15.66;69.34;101992.25;4980528;28;20643;-68
2022/08/06 02:08:03;;;;;;;3.50;3.20;;;;;;;15.74;69.51;101988.84;4980442;28;20446;-70
2022/08/06 02:10:30;;;;;;;3.60;3.30;;;;;;;15.69;69.42;101994.03;4980357;28;20473;-69
2022/08/06 02:12:56;;;;;;;4.70;3.23;;;;;;;15.52;70.20;101991.28;4980217;28;20776;-69
2022/08/06 02:15:24;;;;;;;3.90;3.60;;;;;;;15.61;69.34;101983.47;4979838;28;20457;-70
2022/08/06 02:17:51;;;;;;;4.87;3.90;;;;;;;15.58;69.39;101996.56;4979872;28;20451;-70
2022/08/06 02:20:20;;;;;;;3.80;3.50;;;;;;;15.51;69.28;102000.00;4980085;28;20395;-69
2022/08/06 02:22:46;;;;;;;4.30;3.57;;;;;;;15.66;69.23;101994.00;4979712;28;20390;-70
2022/08/06 02:25:13;;;;;;;3.87;3.57;;;;;;;15.76;69.56;102000.22;4980181;28;20439;-69
2022/08/06 02:27:43;;;;;;;4.20;3.47;;;;;;;15.56;69.44;101995.69;4980635;28;20459;-71
2022/08/06 02:30:09;;;;;;;4.90;3.70;;;;;;;15.72;69.29;101994.09;4979902;28;20468;-70
2022/08/06 02:32:35;;;;;;;4.43;3.70;;;;;;;15.31;69.94;102000.69;4979942;28;20445;-64
2022/08/06 02:35:00;;;;;;;3.70;3.40;;;;;;;15.42;70.05;102002.56;4980795;28;20386;-63
2022/08/06 02:37:51;;;;;;;4.30;3.50;;;;;;;15.52;69.82;102001.78;4978478;28;20450;-65
2022/08/06 02:40:21;;;;;;;5.80;3.60;;;;;;;15.40;69.68;101999.91;4967757;28;20185;-64
2022/08/06 03:03:28;;;;;;;4.30;3.90;;;;;;;15.21;70.56;102009.34;5735430;23;20534;-73
2022/08/06 03:05:55;;;;;;;5.20;4.30;;;;;;;14.96;71.55;102018.69;4940241;29;20711;-73
2022/08/06 03:08:23;;;;;;;4.97;3.90;;;;;;;15.20;70.79;102023.34;4940482;29;20473;-73
2022/08/06 03:10:49;;;;;;;7.73;4.13;;;;;;;15.10;71.06;102017.13;4940428;29;20667;-73
2022/08/06 03:13:16;;;;;;;5.63;4.20;;;;;;;14.97;71.60;102021.31;4940855;29;20419;-73
2022/08/06 03:15:42;;;;;;;5.93;3.80;;;;;;;14.94;71.69;102025.69;4940844;29;20560;-74
2022/08/06 03:18:09;;;;;;;4.50;4.10;;;;;;;15.10;71.19;102027.63;4940309;29;20388;-72
2022/08/06 03:20:35;;;;;;;4.77;4.30;;;;;;;14.78;72.33;102029.84;4940238;29;20840;-73
2022/08/06 03:23:02;;;;;;;6.43;4.30;;;;;;;14.87;71.89;102031.69;4940470;29;20512;-68
2022/08/06 03:25:29;;;;;;;4.80;4.30;;;;;;;14.79;72.07;102032.50;4940719;29;20489;-70
2022/08/06 03:27:56;;;;;;;5.60;4.60;;;;;;;14.83;72.09;102028.19;4940163;29;20520;-70
2022/08/06 03:30:22;;;;;;;6.33;4.50;;;;;;;14.95;71.61;102025.69;4940561;29;20425;-70
2022/08/06 03:32:48;;;;;;;5.00;4.47;;;;;;;14.92;71.66;102022.13;4940684;29;20453;-70
2022/08/06 03:35:14;;;;;;;11.33;4.90;;;;;;;15.19;71.14;102031.22;4940499;29;20435;-71
2022/08/06 03:37:41;;;;;;;5.00;4.50;;;;;;;14.67;71.81;102034.06;4940363;29;20188;-70
2022/08/06 03:40:08;;;;;;;5.33;4.87;;;;;;;15.03;71.48;102040.66;4940405;29;20425;-69
2022/08/06 03:42:34;;;;;;;7.27;4.57;;;;;;;14.94;71.56;102041.44;4940366;29;20437;-71
2022/08/06 03:44:59;;;;;;;5.23;4.73;;;;;;;14.92;71.53;102045.78;4941126;29;20428;-73
2022/08/06 03:47:32;;;;;;;5.93;4.60;;;;;;;15.24;71.09;102051.41;4940746;29;20660;-72
2022/08/06 03:50:20;;;;;;;4.60;4.20;;;;;;;15.16;70.87;102048.69;4940098;29;20232;-74
2022/08/06 03:52:52;;;;;;;8.37;4.90;;;;;;;15.06;70.79;102059.97;4940643;29;20425;-72
2022/08/06 03:55:22;;;;;;;6.10;5.30;;;;;;;15.08;71.52;102054.72;4939931;29;20430;-73
2022/08/06 03:57:51;;;;;;;5.03;4.50;;;;;;;14.88;71.74;102063.22;4924125;29;20421;-72
2022/08/06 04:00:20;;;;;;;5.20;4.70;;;;;;;14.90;72.15;102055.41;4940086;29;20422;-73
2022/08/06 04:02:54;;;;;;;6.50;5.23;;;;;;;14.86;71.63;102059.72;4935734;29;20441;-72
2022/08/06 04:05:21;;;;;;;5.57;5.07;;;;;;;14.86;72.00;102053.59;4920816;29;20568;-72
2022/08/06 04:07:48;;;;;;;6.13;5.10;;;;;;;15.06;71.51;102052.09;4921284;29;20887;-73
2022/08/06 04:10:15;;;;;;;5.03;4.43;;;;;;;15.01;71.76;102053.78;4920843;29;20770;-72
2022/08/06 04:12:42;;;;;;;5.83;5.30;;;;;;;15.18;70.60;102055.72;4922010;29;20418;-73
2022/08/06 04:15:09;;;;;;;5.17;4.67;;;;;;;14.92;71.12;102059.78;4920887;29;20440;-72
2022/08/06 04:17:37;;;;;;;5.07;4.57;;;;;;;15.19;70.38;102060.97;4921343;29;20472;-73
2022/08/06 04:20:02;;;;;;;4.80;4.40;;;;;;;15.08;70.67;102065.22;4921240;29;20430;-72
2022/08/06 04:22:28;;;;;;;4.63;4.23;;;;;;;15.09;70.22;102067.00;4920647;29;20405;-72
2022/08/06 04:24:53;;;;;;;5.10;4.60;;;;;;;15.39;70.20;102071.72;4920736;29;20451;-72
2022/08/06 04:27:20;;;;;;;4.03;3.73;;;;;;;17.07;64.59;102066.03;4921225;29;20531;-72
2022/08/06 04:29:46;;;;;;;4.17;3.77;;;;;;;17.79;60.90;102063.56;4920809;29;20596;-72
2022/08/06 04:32:14;;;;;;;4.67;3.57;;;;;;;18.87;57.87;102059.91;4921398;29;20430;-73
2022/08/06 04:34:40;;;;;;;3.60;3.30;;;;;;;19.58;55.74;102059.56;4921080;29;20418;-72
2022/08/06 04:37:05;;;;;;;3.90;3.60;;;;;;;19.63;53.92;102062.16;4921286;29;20433;-73
2022/08/06 04:39:32;;;;;;;3.40;3.10;;;;;;;20.83;52.63;102065.53;4920726;29;20426;-74
2022/08/06 04:41:57;;;;;;;4.07;3.43;;;;;;;20.56;52.68;102064.91;4921083;29;20170;-73
2022/08/06 04:44:23;;;;;;;3.83;3.43;;;;;;;20.62;52.42;102077.19;4922540;29;20448;-73
2022/08/06 04:46:48;;;;;;;5.70;3.50;;;;;;;20.57;51.58;102085.22;4924712;29;20189;-73
2022/08/06 04:49:15;;;;;;;4.67;3.27;;;;;;;20.09;53.35;102095.38;4924387;29;20217;-72
2022/08/06 04:51:44;;;;;;;3.73;3.30;;;;;;;20.84;51.27;102094.66;4924735;29;20309;-72
2022/08/06 04:54:09;;;;;;;3.60;3.30;;;;;;;20.63;51.15;102103.69;4924630;29;20691;-73
2022/08/06 04:56:35;;;;;;;3.07;2.77;;;;;;;21.26;48.90;102107.41;4925420;29;20410;-72
2022/08/06 04:59:00;;;;;;;4.53;3.10;;;;;;;21.70;48.47;102099.72;4924500;29;20186;-73
2022/08/06 05:01:26;;;;;;;5.40;2.77;;;;;;;21.87;47.66;102088.88;4924602;29;20194;-72
2022/08/06 05:03:51;;;;;;;3.60;2.80;;;;;;;21.84;48.05;102097.75;4924379;29;20313;-72
2022/08/06 05:06:38;;;;;;;4.03;2.90;;;;;;;21.34;47.55;102105.53;4924390;29;20178;-71
2022/08/06 05:09:09;;;;;;;4.70;2.83;;;;;;;22.00;47.16;102100.16;4923800;29;20269;-72
2022/08/06 05:11:41;;;;;;;4.80;3.00;;;;;;;23.27;44.24;102103.13;4923624;29;20445;-73
2022/08/06 05:14:13;;;;;;;4.47;2.40;;;;;;;23.10;44.10;102114.97;4924217;29;20450;-73
2022/08/06 05:16:41;;;;;;;3.90;2.60;;;;;;;22.72;44.69;102108.66;4923732;29;20746;-73
2022/08/06 05:19:15;;;;;;;3.53;2.60;;;;;;;21.90;47.27;102120.66;4923526;29;20661;-73
2022/08/06 05:21:41;;;;;;;5.20;4.63;;;;;;;22.41;46.24;102121.63;4923533;29;20692;-73
2022/08/06 05:24:07;;;;;;;3.43;2.60;;;;;;;20.86;48.98;102130.00;4923948;29;20426;-72
2022/08/06 05:26:33;;;;;;;4.20;2.80;;;;;;;21.51;48.06;102129.19;4923860;29;20179;-71
2022/08/06 05:28:58;;;;;;;4.63;2.87;;;;;;;21.78;47.04;102131.47;4923252;29;20919;-71
2022/08/06 05:31:35;;;;;;;4.50;2.57;;;;;;;23.84;42.74;102126.66;4924170;29;20405;-71
2022/08/06 05:34:02;;;;;;;4.40;2.93;;;;;;;22.21;45.83;102129.00;4923942;29;20548;-73
2022/08/06 05:36:27;;;;;;;4.20;2.70;;;;;;;24.35;42.03;102127.22;4924185;29;20574;-71
2022/08/06 05:38:52;;;;;;;3.47;2.43;;;;;;;23.40;43.76;102139.22;4924259;29;20505;-72
2022/08/06 05:41:18;;;;;;;3.90;2.77;;;;;;;20.55;50.54;102139.09;4923131;29;20525;-73
2022/08/06 05:43:44;;;;;;;3.13;2.40;;;;;;;20.06;52.53;102140.41;4923645;29;20225;-73
2022/08/06 05:46:12;;;;;;;5.07;3.07;;;;;;;19.25;54.14;102161.13;4924332;29;20547;-72
2022/08/06 05:48:44;;;;;;;4.50;3.17;;;;;;;18.60;56.26;102164.75;4923052;29;20476;-73
2022/08/06 05:51:20;;;;;;;4.93;3.27;;;;;;;18.49;56.46;102163.88;4922828;29;20503;-71
2022/08/06 05:53:53;;;;;;;5.20;3.00;;;;;;;17.83;58.20;102172.59;4922726;29;20422;-71
2022/08/06 05:56:25;;;;;;;3.77;3.00;;;;;;;17.98;58.76;102177.94;4921793;29;20422;-71
2022/08/06 05:58:56;;;;;;;3.43;2.83;;;;;;;18.00;58.32;102176.16;4923533;29;20421;-73
2022/08/06 06:01:22;;;;;;;6.63;3.30;;;;;;;17.77;59.19;102186.63;4922780;29;20440;-72
2022/08/06 06:03:49;;;;;;;3.80;3.07;;;;;;;17.72;59.94;102191.00;4921980;29;20478;-72
2022/08/06 06:06:14;;;;;;;3.53;3.10;;;;;;;17.68;59.73;102184.88;4922791;29;20397;-73
2022/08/06 06:08:41;;;;;;;3.20;2.73;;;;;;;17.19;60.88;102191.69;4928884;29;20901;-71
2022/08/06 06:11:08;;;;;;;6.33;2.97;;;;;;;17.54;59.97;102198.88;4923803;29;20170;-72
2022/08/06 06:13:34;;;;;;;5.40;2.97;;;;;;;17.53;59.99;102189.19;4923077;29;20412;-73
2022/08/06 06:16:36;;;;;;;5.70;3.67;;;;;;;17.42;60.26;102197.94;4922934;29;20430;-72
2022/08/06 06:19:01;;;;;;;5.77;4.03;;;;;;;17.66;60.25;102197.16;4922436;29;20177;-72
2022/08/06 06:21:34;;;;;;;4.17;3.70;;;;;;;17.98;59.46;102198.16;4923254;29;20422;-71
2022/08/06 06:24:11;;;;;;;3.90;3.27;;;;;;;18.07;58.95;102192.03;4922959;29;20174;-73
2022/08/06 06:26:46;;;;;;;7.30;3.10;;;;;;;20.03;54.17;102179.25;4922376;29;20629;-72
2022/08/06 06:29:50;;;;;;;3.90;3.20;;;;;;;23.23;46.31;102171.47;4922349;29;20504;-72
2022/08/06 06:32:24;;;;;;;3.53;2.70;;;;;;;23.56;43.97;102182.34;4902771;29;20453;-72
2022/08/06 06:35:17;;;;;;;2.80;2.40;;;;;;;24.30;42.16;102180.66;4916225;29;20904;-73
2022/08/06 06:37:48;;;;;;;3.33;2.40;;;;;;;24.43;41.62;102183.88;4922773;29;20406;-72
2022/08/06 06:40:24;;;;;;;3.97;2.40;;;;;;;24.36;41.51;102182.28;4922003;29;20419;-71
2022/08/06 06:43:01;;;;;;;3.50;2.47;;;;;;;25.58;39.29;102178.94;4922566;29;20410;-72
2022/08/06 06:45:42;;;;;;;4.70;2.60;;;;;;;26.09;38.16;102182.72;4922748;29;20410;-71
2022/08/06 06:48:09;;;;;;;3.67;2.20;;;;;;;26.63;36.99;102178.22;4921808;29;20481;-72
2022/08/06 06:50:41;;;;;;;4.97;2.67;;;;;;;26.20;37.47;102179.69;4922625;29;20418;-71
2022/08/06 06:53:09;;;;;;;3.30;2.27;;;;;;;26.16;37.84;102178.91;4921746;29;20441;-71
2022/08/06 06:55:46;;;;;;;3.80;2.27;;;;;;;25.48;39.45;102180.13;4921816;29;20690;-71
2022/08/06 06:58:47;;;;;;;3.03;2.07;;;;;;;25.78;38.65;102186.34;4921698;29;20458;-72
2022/08/06 07:01:15;;;;;;;4.43;1.80;;;;;;;25.96;38.87;102192.03;4901741;29;20437;-72
2022/08/06 07:03:42;;;;;;;4.00;2.27;;;;;;;27.12;35.88;102180.97;4921332;29;20481;-71
2022/08/06 07:06:08;;;;;;;4.00;2.27;;;;;;;27.21;36.10;102191.31;4922383;29;20687;-71
2022/08/06 07:08:41;;;;;;;2.73;2.10;;;;;;;26.45;37.41;102200.25;4921407;29;20474;-71
2022/08/06 07:11:07;;;;;;;2.77;2.00;;;;;;;25.73;38.86;102206.97;4921646;29;20414;-73
2022/08/06 07:13:33;;;;;;;2.63;2.10;;;;;;;25.03;40.18;102213.41;4905544;29;20491;-70
2022/08/06 07:15:59;;;;;;;4.40;2.60;;;;;;;26.03;39.12;102214.97;4922581;29;20535;-71
2022/08/06 07:18:26;;;;;;;4.27;2.43;;;;;;;25.47;39.61;102211.31;4921427;29;20426;-71
2022/08/06 07:20:52;;;;;;;3.93;2.20;;;;;;;27.02;37.10;102206.31;4921337;29;20193;-72
2022/08/06 07:23:18;;;;;;;4.33;2.23;;;;;;;25.47;39.61;102213.13;4921635;29;20693;-71
2022/08/06 07:25:45;;;;;;;5.73;2.10;;;;;;;25.08;40.59;102215.97;4922009;29;20257;-71
2022/08/06 07:28:11;;;;;;;2.20;1.87;;;;;;;26.49;37.71;102210.78;4921292;29;20738;-71
2022/08/06 07:30:38;;;;;;;2.23;1.80;;;;;;;27.63;35.33;102218.34;4921888;29;20419;-71
2022/08/06 07:33:04;;;;;;;4.60;2.30;;;;;;;26.58;37.79;102214.97;4921074;29;20543;-71
2022/08/06 07:35:31;;;;;;;3.80;2.20;;;;;;;23.60;43.01;102228.38;4921936;29;20485;-70
2022/08/06 07:37:59;;;;;;;2.50;1.90;;;;;;;22.74;45.53;102239.75;4922326;29;20430;-72
2022/08/06 07:40:47;;;;;;;3.77;2.37;;;;;;;22.30;46.72;102243.97;4921200;29;20430;-71
2022/08/06 07:43:16;;;;;;;3.83;2.50;;;;;;;21.76;48.36;102245.66;4921084;29;20445;-71
2022/08/06 07:45:42;;;;;;;8.17;2.40;;;;;;;21.73;48.53;102243.03;4921948;29;20517;-70
2022/08/06 07:48:10;;;;;;;2.60;1.97;;;;;;;21.85;48.80;102245.53;4921705;29;20566;-69
2022/08/06 07:50:36;;;;;;;3.67;2.23;;;;;;;21.59;49.50;102240.53;4922313;29;20185;-70
2022/08/06 07:53:02;;;;;;;4.60;2.43;;;;;;;20.65;50.33;102246.78;4921814;29;20446;-70
2022/08/06 07:55:28;;;;;;;4.73;2.30;;;;;;;22.11;48.27;102244.28;4921740;29;20430;-69
2022/08/06 07:57:55;;;;;;;3.90;2.10;;;;;;;23.44;44.73;102236.72;4922381;29;20411;-70
2022/08/06 08:00:21;;;;;;;3.27;2.30;;;;;;;24.30;42.60;102235.72;4919981;29;20202;-76
2022/08/06 08:06:17;;;;;;;3.73;2.23;;;;;;;23.08;43.94;102241.81;4921427;29;20450;-74
2022/08/06 08:08:16;;;;;;;3.00;1.87;;;;;;;25.50;38.60;102226.38;4921668;29;20744;-73
2022/08/06 08:10:42;;;;;;;2.67;1.73;;;;;;;26.17;36.89;102234.13;4921568;29;20442;-73
2022/08/06 08:13:09;;;;;;;3.07;1.70;;;;;;;26.53;36.32;102231.19;4920815;29;20178;-73
2022/08/06 08:15:34;;;;;;;4.03;2.83;;;;;;;27.44;35.06;102235.16;4921831;29;20178;-74
2022/08/06 08:18:00;;;;;;;2.20;1.60;;;;;;;26.74;36.17;102231.38;4921513;29;20430;-73
2022/08/06 08:20:29;;;;;;;4.10;1.90;;;;;;;27.44;35.66;102229.78;4924640;29;20190;-73
2022/08/06 08:22:55;;;;;;;3.87;1.90;;;;;;;28.20;34.12;102232.22;4925378;29;20440;-71
2022/08/06 08:25:20;;;;;;;8.70;2.90;;;;;;;28.44;33.41;102224.06;4925293;29;20440;-72
2022/08/06 08:27:46;;;;;;;4.33;3.93;;;;;;;28.47;32.91;102223.94;4925084;29;20202;-72
2022/08/06 08:30:11;;;;;;;4.13;2.00;;;;;;;28.18;33.36;102215.31;4925302;29;20520;-68
2022/08/06 08:32:36;;;;;;;2.17;1.77;;;;;;;28.21;33.24;102221.41;4924739;29;20217;-71
2022/08/06 08:35:03;;;;;;;2.37;2.00;;;;;;;28.75;31.68;102231.69;4924857;29;20265;-71
2022/08/06 08:37:28;;;;;;;2.83;1.90;;;;;;;28.12;32.71;102237.00;4925318;29;20178;-71
2022/08/06 08:39:53;;;;;;;2.77;1.67;;;;;;;28.92;31.52;102222.06;4924809;29;20441;-71
2022/08/06 08:42:25;;;;;;;3.23;1.97;;;;;;;28.37;32.48;102235.06;4924927;29;20238;-72
2022/08/06 08:44:51;;;;;;;2.67;1.70;;;;;;;27.39;33.09;102237.13;4924674;29;20178;-72
2022/08/06 08:47:19;;;;;;;2.93;1.53;;;;;;;28.86;32.07;102232.13;4924035;29;20433;-70
2022/08/06 08:49:52;;;;;;;4.73;2.00;;;;;;;28.87;31.76;102235.66;4924594;29;20410;-69
2022/08/06 08:52:28;;;;;;;2.30;1.80;;;;;;;29.10;30.78;102225.72;4924004;29;20458;-70
2022/08/06 08:54:58;;;;;;;2.63;1.73;;;;;;;29.90;30.38;102228.28;4924637;29;20446;-70
2022/08/06 08:57:26;;;;;;;4.73;2.00;;;;;;;29.08;30.40;102233.84;4923838;29;20676;-69
2022/08/06 08:59:51;;;;;;;3.43;1.80;;;;;;;29.29;30.99;102231.16;4923891;29;20431;-71
2022/08/06 09:02:17;;;;;;;1.93;1.70;;;;;;;29.20;29.79;102235.97;4924819;29;20433;-70
2022/08/06 09:04:42;;;;;;;2.10;1.50;;;;;;;30.14;29.96;102236.09;4924167;29;20222;-71
2022/08/06 09:07:09;;;;;;;1.90;1.70;;;;;;;28.66;30.13;102245.50;4923690;29;20177;-72
2022/08/06 09:09:37;;;;;;;2.00;1.50;;;;;;;29.49;29.93;102246.34;4924457;29;20194;-71
2022/08/06 09:12:03;;;;;;;2.10;1.50;;;;;;;29.98;29.45;102243.16;4924212;29;20418;-71
2022/08/06 09:14:28;;;;;;;4.27;2.13;;;;;;;29.38;29.95;102246.84;4924004;29;20639;-72
2022/08/06 09:16:54;;;;;;;2.37;1.67;;;;;;;29.01;30.55;102243.09;4924083;29;20181;-72
2022/08/06 09:19:19;;;;;;;2.37;1.60;;;;;;;27.36;32.45;102240.78;4939197;29;20261;-72
2022/08/06 09:21:44;;;;;;;2.03;1.83;;;;;;;27.61;32.28;102257.75;4924017;29;20185;-72
2022/08/06 09:24:10;;;;;;;3.00;2.13;;;;;;;29.28;30.35;102246.41;4924207;29;20174;-74
2022/08/06 09:26:36;;;;;;;2.57;1.80;;;;;;;28.51;30.52;102250.56;4923772;29;20200;-72
2022/08/06 09:29:02;;;;;;;2.10;1.60;;;;;;;27.46;32.64;102246.66;4923852;29;20203;-72
2022/08/06 09:31:27;;;;;;;3.00;2.00;;;;;;;26.45;35.16;102269.78;4923395;29;20181;-70
2022/08/06 09:34:06;;;;;;;6.40;1.90;;;;;;;26.66;34.28;102268.19;4923778;29;20675;-70
2022/08/06 09:36:42;;;;;;;4.10;1.90;;;;;;;26.05;35.21;102271.94;4923710;29;20174;-70
2022/08/06 09:39:08;;;;;;;2.40;1.83;;;;;;;24.79;36.89;102271.88;4923749;29;20421;-70
2022/08/06 09:41:34;;;;;;;3.40;2.27;;;;;;;24.98;37.19;102282.06;4923687;29;20439;-69
2022/08/06 09:44:09;;;;;;;2.80;2.20;;;;;;;24.63;37.33;102286.50;4938849;29;20177;-71
2022/08/06 09:46:44;;;;;;;2.80;1.90;;;;;;;25.65;36.19;102289.13;4923732;29;20713;-71
2022/08/06 09:49:12;;;;;;;3.13;2.40;;;;;;;26.25;34.86;102289.13;4923483;29;20566;-71
2022/08/06 09:51:38;;;;;;;4.37;1.80;;;;;;;28.63;30.92;102265.28;4923642;29;20449;-70
2022/08/06 09:54:05;;;;;;;3.07;1.90;;;;;;;29.20;29.41;102270.00;4923215;29;20509;-74
2022/08/06 09:56:31;;;;;;;2.73;2.03;;;;;;;27.95;30.25;102272.50;4923455;29;20430;-73
2022/08/06 09:59:01;;;;;;;3.80;2.20;;;;;;;28.95;29.63;102270.22;4938982;29;20670;-71
2022/08/06 10:01:27;;;;;;;2.30;1.83;;;;;;;29.11;29.32;102271.28;4923344;29;20510;-73
2022/08/06 10:03:56;;;;;;;2.77;2.10;;;;;;;28.57;30.54;102266.41;4937973;29;20546;-73
2022/08/06 10:06:22;;;;;;;2.33;2.10;;;;;;;29.64;29.16;102279.69;4923492;29;20416;-72
2022/08/06 10:08:49;;;;;;;2.63;2.00;;;;;;;29.48;28.60;102269.63;4937289;29;20490;-71
2022/08/06 10:11:15;;;;;;;3.90;2.00;;;;;;;29.35;27.08;102263.97;4922316;29;20174;-70
2022/08/06 10:13:47;;;;;;;3.03;1.90;;;;;;;29.89;26.99;102271.34;4923322;29;20410;-69
2022/08/06 10:16:26;;;;;;;2.50;1.93;;;;;;;30.11;26.47;102268.50;4922961;29;20415;-70
2022/08/06 10:18:52;;;;;;;4.90;2.10;;;;;;;29.44;27.55;102268.03;4923000;29;20501;-69
2022/08/06 10:21:24;;;;;;;4.90;2.50;;;;;;;29.74;28.14;102264.84;4922965;29;20505;-68
2022/08/06 10:23:51;;;;;;;4.80;2.10;;;;;;;29.55;26.91;102268.44;4922741;29;20514;-70
2022/08/06 10:26:22;;;;;;;2.43;1.80;;;;;;;28.75;27.84;102271.94;4923402;29;20426;-70
2022/08/06 10:28:49;;;;;;;3.40;2.30;;;;;;;28.94;27.95;102276.53;4922648;29;20473;-68
2022/08/06 10:31:15;;;;;;;3.50;2.10;;;;;;;28.23;29.17;102280.34;4921781;29;20418;-71
2022/08/06 10:34:02;;;;;;;3.43;2.07;;;;;;;28.28;29.73;102280.16;4923181;29;20426;-73
